CMB821 Details

Departure: Patrick Air Force Base (KCOF)
Arrival: Joint Base McGuire Dix Lakehurst (KWRI)
Route: APOLO ETECK AR18 DIW J174 SWL J121 SIE V44 PANZE V184 ZIGGI
Notes: USTRANSCOM CONTRACT FLIGHT


Current Weather Information
KCOF 200856Z AUTO 02014KT 10SM SCT024 SCT033 18/18 A3001 RMK AO2 DZB02E08DZB27E34 SLPNO P0000 60002 T01760176 56016 $
KWRI 200756Z AUTO 00000KT 10SM CLR M02/M03 A3037 RMK AO2 SLP285 T10181026